Time;durP1;ratioP1;P1;durP2;ratioP2;P2;SDS_P1;SDS_P2;PMS_P1;PMS_P2;Temp;Humidity;BMP_temperature;BMP_pressure;BME280_temperature;BME280_humidity;BME280_pressure;Samples;Min_cycle;Max_cycle;Signal;HPM_P1;HPM_P2
2021/04/22 00:00:12;;;;;;;17.97;14.50;;;14.90;50.80;;;;;;5112778;28;20673;-51
2021/04/22 00:02:39;;;;;;;16.03;14.37;;;14.80;50.70;;;;;;5113051;28;20649;-51
2021/04/22 00:05:15;;;;;;;18.10;14.80;;;14.70;50.70;;;;;;5112753;27;21053;-51
2021/04/22 00:07:41;;;;;;;18.13;15.93;;;14.60;51.00;;;;;;5112875;28;20631;-51
2021/04/22 00:10:11;;;;;;;16.77;13.03;;;14.70;51.10;;;;;;5112857;27;21063;-51
2021/04/22 00:12:38;;;;;;;16.17;13.37;;;14.60;51.10;;;;;;5112875;27;20655;-51
2021/04/22 00:15:08;;;;;;;16.13;14.43;;;14.60;51.20;;;;;;5122100;27;21230;-51
2021/04/22 00:17:35;;;;;;;15.47;13.13;;;14.60;51.30;;;;;;5132064;27;20622;-51
2021/04/22 00:20:03;;;;;;;12.93;11.33;;;14.50;51.30;;;;;;5132672;27;20683;-51
2021/04/22 00:22:30;;;;;;;18.10;15.27;;;14.50;51.50;;;;;;5132769;27;20674;-52
2021/04/22 00:24:56;;;;;;;16.13;13.33;;;14.50;51.70;;;;;;5114693;27;20684;-52
2021/04/22 00:27:24;;;;;;;14.93;13.47;;;14.50;51.70;;;;;;5113000;27;20634;-52
2021/04/22 00:29:51;;;;;;;15.53;13.93;;;14.50;51.80;;;;;;5113156;27;20627;-52
2021/04/22 00:32:17;;;;;;;17.10;14.70;;;14.50;51.90;;;;;;5113354;27;20714;-52
2021/04/22 00:34:44;;;;;;;17.53;13.10;;;14.50;52.00;;;;;;5128927;27;20726;-51
2021/04/22 00:37:11;;;;;;;15.30;13.70;;;14.40;52.10;;;;;;5132551;27;20622;-52
2021/04/22 00:39:38;;;;;;;15.10;13.50;;;14.40;52.20;;;;;;5127987;27;20626;-52
2021/04/22 00:42:05;;;;;;;15.40;12.23;;;14.40;52.40;;;;;;5131902;27;20654;-52
2021/04/22 00:44:37;;;;;;;14.27;12.93;;;14.30;52.40;;;;;;5125601;27;21187;-52
2021/04/22 00:47:10;;;;;;;20.23;14.03;;;14.30;52.60;;;;;;5112454;28;21002;-52
2021/04/22 00:49:42;;;;;;;14.23;12.73;;;14.20;52.70;;;;;;5112711;28;21198;-52
2021/04/22 00:52:16;;;;;;;16.07;13.30;;;14.20;52.90;;;;;;5112409;28;20682;-52
2021/04/22 00:54:50;;;;;;;16.80;13.60;;;14.10;52.90;;;;;;5111865;28;21233;-52
2021/04/22 00:57:21;;;;;;;15.87;12.97;;;14.10;53.20;;;;;;5111920;27;20631;-51
2021/04/22 01:05:32;;;;;;;19.23;14.53;;;14.10;53.60;;;;;;5257780;22;20688;-51
2021/04/22 01:07:59;;;;;;;13.93;12.53;;;14.10;53.60;;;;;;5068969;28;20637;-51
2021/04/22 01:10:26;;;;;;;13.63;12.13;;;14.00;53.50;;;;;;5069814;28;20997;-51
2021/04/22 01:12:53;;;;;;;13.83;12.53;;;14.00;53.70;;;;;;5051043;28;20633;-51
2021/04/22 01:15:21;;;;;;;12.90;11.53;;;14.00;53.80;;;;;;5070034;28;20654;-52
2021/04/22 01:17:48;;;;;;;14.37;12.47;;;14.00;53.90;;;;;;5070881;28;20625;-51
2021/04/22 01:20:17;;;;;;;13.83;12.10;;;14.00;54.10;;;;;;5069878;28;20621;-52
2021/04/22 01:22:44;;;;;;;14.83;11.70;;;13.90;54.10;;;;;;5068485;28;21198;-52
2021/04/22 01:25:13;;;;;;;15.30;12.67;;;13.90;54.20;;;;;;5071080;28;20617;-53
2021/04/22 01:27:40;;;;;;;21.13;12.93;;;13.90;54.30;;;;;;5070726;28;20682;-53
2021/04/22 01:30:09;;;;;;;16.10;10.53;;;13.80;54.60;;;;;;5071059;28;21173;-52
2021/04/22 01:32:35;;;;;;;17.40;10.27;;;13.80;55.10;;;;;;5071092;28;20656;-53
2021/04/22 01:35:02;;;;;;;11.60;10.50;;;13.80;55.30;;;;;;5069844;28;20722;-52
2021/04/22 01:37:29;;;;;;;14.87;10.63;;;13.70;55.20;;;;;;5070432;28;20717;-52
2021/04/22 01:39:57;;;;;;;12.83;10.67;;;13.70;54.80;;;;;;5070325;28;20644;-52
2021/04/22 01:42:24;;;;;;;11.33;8.83;;;13.60;54.50;;;;;;5071094;28;20661;-52
2021/04/22 01:44:50;;;;;;;13.40;8.20;;;13.60;54.00;;;;;;5070283;28;20623;-52
2021/04/22 01:47:17;;;;;;;10.43;7.40;;;13.40;53.40;;;;;;5070177;28;20650;-52
2021/04/22 01:49:44;;;;;;;11.17;7.07;;;13.40;53.20;;;;;;5070562;28;20634;-52
2021/04/22 01:52:10;;;;;;;15.20;8.93;;;13.30;52.80;;;;;;5071217;28;21016;-52
2021/04/22 01:54:37;;;;;;;13.83;8.83;;;13.30;52.70;;;;;;5070911;28;20658;-52
2021/04/22 01:57:06;;;;;;;11.83;8.37;;;13.30;52.70;;;;;;5070552;28;20625;-52
2021/04/22 01:59:33;;;;;;;10.07;7.90;;;13.20;52.50;;;;;;5070362;28;21271;-51
2021/04/22 02:01:59;;;;;;;9.00;7.30;;;13.20;52.60;;;;;;5070752;28;20711;-52
2021/04/22 02:04:26;;;;;;;14.40;8.10;;;13.20;53.00;;;;;;5070693;28;20694;-52
2021/04/22 02:06:53;;;;;;;9.07;7.47;;;13.10;52.50;;;;;;5071485;28;21244;-52
2021/04/22 02:09:20;;;;;;;11.73;7.50;;;13.10;52.50;;;;;;5070098;28;20683;-54
2021/04/22 02:11:46;;;;;;;12.83;7.40;;;13.10;52.60;;;;;;5071051;28;20707;-51
2021/04/22 02:14:14;;;;;;;12.43;7.87;;;13.00;52.50;;;;;;5070144;28;20691;-52
2021/04/22 02:16:41;;;;;;;13.63;7.50;;;13.10;52.30;;;;;;5070672;28;20627;-53
2021/04/22 02:19:07;;;;;;;16.50;6.90;;;13.00;52.10;;;;;;5070894;28;20610;-53
2021/04/22 02:21:34;;;;;;;10.37;6.60;;;12.90;51.90;;;;;;5070510;28;20660;-53
2021/04/22 02:24:01;;;;;;;14.00;6.83;;;12.80;51.80;;;;;;5050514;28;20697;-53
2021/04/22 02:26:28;;;;;;;9.93;5.50;;;12.80;51.60;;;;;;5050317;28;20622;-52
2021/04/22 02:28:54;;;;;;;9.73;6.50;;;12.70;51.00;;;;;;5050304;28;20649;-52
2021/04/22 02:31:22;;;;;;;12.73;6.00;;;12.60;50.50;;;;;;5067180;28;20653;-52
2021/04/22 02:33:52;;;;;;;8.70;6.30;;;12.50;50.40;;;;;;5070514;28;20670;-52
2021/04/22 02:36:19;;;;;;;8.90;5.53;;;12.50;50.30;;;;;;5069647;28;20707;-52
2021/04/22 02:38:46;;;;;;;19.07;7.23;;;12.40;50.30;;;;;;5070141;28;20710;-52
2021/04/22 02:41:13;;;;;;;9.97;5.00;;;12.30;50.10;;;;;;5072784;28;20649;-52
2021/04/22 02:43:39;;;;;;;12.53;5.50;;;12.30;50.00;;;;;;5055504;28;20682;-52
2021/04/22 02:46:06;;;;;;;7.57;4.50;;;12.20;50.00;;;;;;5073924;28;20640;-52
2021/04/22 02:48:34;;;;;;;11.90;4.97;;;12.10;49.90;;;;;;5073588;28;20625;-52
2021/04/22 02:51:01;;;;;;;11.23;6.13;;;12.10;50.00;;;;;;5073542;28;20722;-52
2021/04/22 02:53:27;;;;;;;6.30;4.17;;;12.00;49.60;;;;;;5073879;28;21025;-52
2021/04/22 02:55:54;;;;;;;9.03;5.43;;;11.90;49.50;;;;;;5073395;28;20782;-51
2021/04/22 02:58:22;;;;;;;8.00;4.93;;;11.90;49.70;;;;;;5072610;28;20629;-52
2021/04/22 03:00:48;;;;;;;10.10;4.93;;;11.80;49.70;;;;;;5073868;28;20718;-53
2021/04/22 03:03:15;;;;;;;7.97;4.40;;;11.70;49.90;;;;;;5073886;28;20774;-50
2021/04/22 03:05:43;;;;;;;10.07;4.53;;;11.70;50.00;;;;;;5072526;28;21174;-51
2021/04/22 03:08:09;;;;;;;7.00;3.47;;;11.70;49.90;;;;;;5073043;28;20629;-50
2021/04/22 03:10:36;;;;;;;12.53;4.73;;;11.70;49.60;;;;;;5073251;28;20694;-51
2021/04/22 03:13:03;;;;;;;7.73;3.87;;;11.70;49.50;;;;;;5073072;28;21231;-52
2021/04/22 03:15:30;;;;;;;6.27;3.43;;;11.70;49.80;;;;;;5073466;28;20645;-51
2021/04/22 03:17:57;;;;;;;9.97;4.67;;;11.60;49.20;;;;;;5073082;28;20632;-51
2021/04/22 03:20:24;;;;;;;11.50;4.50;;;11.60;49.20;;;;;;5073052;28;20713;-52
2021/04/22 03:22:51;;;;;;;7.13;3.33;;;11.50;49.00;;;;;;5068785;28;20674;-52
2021/04/22 03:25:20;;;;;;;14.00;4.20;;;11.50;48.90;;;;;;5073239;28;20707;-53
2021/04/22 03:27:47;;;;;;;6.73;3.40;;;11.40;48.70;;;;;;5072717;28;20690;-52
2021/04/22 03:30:15;;;;;;;12.50;3.63;;;11.40;48.80;;;;;;5072316;28;20621;-53
2021/04/22 03:32:42;;;;;;;10.27;3.80;;;11.30;48.70;;;;;;5072763;28;20653;-51
2021/04/22 03:35:10;;;;;;;8.00;3.27;;;11.30;48.70;;;;;;5072117;28;20826;-51
2021/04/22 03:37:36;;;;;;;5.23;3.40;;;11.20;48.60;;;;;;5071836;28;20980;-52
2021/04/22 03:40:06;;;;;;;4.20;3.30;;;11.20;48.80;;;;;;5072250;28;20629;-52
2021/04/22 03:42:33;;;;;;;4.73;2.90;;;11.20;48.70;;;;;;5052452;28;20704;-51
2021/04/22 03:44:59;;;;;;;7.67;4.00;;;11.10;48.70;;;;;;5068040;28;20686;-52
2021/04/22 03:47:27;;;;;;;9.50;4.50;;;11.00;48.60;;;;;;5071877;28;20656;-51
2021/04/22 03:49:54;;;;;;;7.53;3.30;;;11.00;48.60;;;;;;5072287;28;20682;-52
2021/04/22 03:52:20;;;;;;;5.37;3.50;;;10.90;48.70;;;;;;5072323;28;20684;-51
2021/04/22 03:54:47;;;;;;;7.30;3.50;;;10.80;48.80;;;;;;5072294;28;20745;-51
2021/04/22 03:57:15;;;;;;;10.40;2.97;;;10.70;48.90;;;;;;5072220;28;20625;-51
2021/04/22 03:59:42;;;;;;;6.13;3.13;;;10.70;49.00;;;;;;5071597;28;20634;-52
2021/04/22 04:02:08;;;;;;;7.97;2.53;;;10.70;49.00;;;;;;5072095;28;20706;-51
2021/04/22 04:04:35;;;;;;;11.90;3.47;;;10.60;49.00;;;;;;5071900;28;20640;-52
2021/04/22 04:07:02;;;;;;;6.30;3.30;;;10.60;49.20;;;;;;5072205;28;20633;-52
2021/04/22 04:09:29;;;;;;;6.57;3.73;;;10.60;49.10;;;;;;5071407;28;20674;-52
2021/04/22 04:11:55;;;;;;;10.23;3.60;;;10.60;49.30;;;;;;5071705;28;20652;-52
2021/04/22 04:14:23;;;;;;;5.70;3.40;;;10.60;49.30;;;;;;5072016;28;21244;-52
2021/04/22 04:16:50;;;;;;;6.87;3.50;;;10.50;49.10;;;;;;5071966;28;20681;-51
2021/04/22 04:19:17;;;;;;;4.27;2.93;;;10.60;49.10;;;;;;5071440;28;21254;-52
2021/04/22 04:21:43;;;;;;;8.10;3.10;;;10.50;49.10;;;;;;5072027;28;20647;-52
2021/04/22 04:24:11;;;;;;;5.93;3.00;;;10.50;49.00;;;;;;5071613;28;21182;-52
2021/04/22 04:26:37;;;;;;;6.07;3.27;;;10.50;48.90;;;;;;5071706;28;20617;-51
2021/04/22 04:29:04;;;;;;;5.80;2.87;;;10.50;48.80;;;;;;5071675;28;21029;-52
2021/04/22 04:31:32;;;;;;;11.33;4.30;;;10.50;49.00;;;;;;5071694;28;20664;-52
2021/04/22 04:33:59;;;;;;;12.90;3.30;;;10.40;48.90;;;;;;5072087;28;20643;-52
2021/04/22 04:36:26;;;;;;;6.23;3.10;;;10.40;49.00;;;;;;5070768;28;20698;-52
2021/04/22 04:38:52;;;;;;;10.13;3.47;;;10.30;49.00;;;;;;5071362;28;20654;-51
2021/04/22 04:41:19;;;;;;;9.47;3.00;;;10.40;49.00;;;;;;5071341;28;21209;-51
2021/04/22 04:43:46;;;;;;;6.80;3.60;;;10.40;48.90;;;;;;5071314;28;20625;-51
2021/04/22 04:46:17;;;;;;;11.80;3.73;;;10.30;48.90;;;;;;5052544;28;21030;-52
2021/04/22 04:48:44;;;;;;;9.53;4.07;;;10.30;48.90;;;;;;5071111;28;20625;-51
2021/04/22 04:51:11;;;;;;;15.50;3.20;;;10.30;48.90;;;;;;5071180;28;20709;-52
2021/04/22 04:53:38;;;;;;;8.63;4.93;;;10.30;49.20;;;;;;5071545;28;20754;-52
2021/04/22 04:56:05;;;;;;;5.30;2.80;;;10.20;49.00;;;;;;5071492;28;21213;-51
2021/04/22 04:58:32;;;;;;;9.13;3.20;;;10.20;49.00;;;;;;5070465;28;21150;-51
2021/04/22 05:00:59;;;;;;;7.70;3.80;;;10.20;49.00;;;;;;5069623;28;20717;-52
2021/04/22 05:03:25;;;;;;;7.77;3.43;;;10.30;48.60;;;;;;5070547;28;20621;-51
2021/04/22 05:05:53;;;;;;;7.07;2.97;;;10.20;48.10;;;;;;5070421;28;20707;-51
2021/04/22 05:08:20;;;;;;;8.50;3.30;;;10.20;48.00;;;;;;5070908;28;20632;-51
2021/04/22 05:10:46;;;;;;;12.63;4.37;;;10.20;47.80;;;;;;5070681;28;20653;-52
2021/04/22 05:13:13;;;;;;;10.40;4.50;;;10.20;47.50;;;;;;5069889;28;20641;-51
2021/04/22 05:15:40;;;;;;;17.23;4.27;;;10.20;47.30;;;;;;5069557;28;20947;-51
2021/04/22 05:18:07;;;;;;;8.47;4.00;;;10.20;47.10;;;;;;5068609;28;20797;-52
2021/04/22 05:20:34;;;;;;;9.63;4.17;;;10.10;47.10;;;;;;5070655;28;20637;-52
2021/04/22 05:23:01;;;;;;;10.07;3.50;;;10.00;47.00;;;;;;5068845;28;21028;-52
2021/04/22 05:25:28;;;;;;;11.10;4.10;;;10.00;47.10;;;;;;5034151;28;20683;-52
2021/04/22 05:27:55;;;;;;;21.57;3.73;;;10.00;47.20;;;;;;5055557;28;20693;-52
2021/04/22 05:30:22;;;;;;;7.20;4.10;;;9.90;47.80;;;;;;5070297;28;20740;-52
2021/04/22 05:32:49;;;;;;;9.23;4.30;;;10.00;46.90;;;;;;5069851;28;20657;-52
2021/04/22 05:35:16;;;;;;;7.23;3.23;;;10.00;46.90;;;;;;5069809;28;20629;-52
2021/04/22 05:37:43;;;;;;;6.77;3.10;;;10.00;46.70;;;;;;5070118;28;20684;-51
2021/04/22 05:40:12;;;;;;;7.00;3.27;;;10.00;46.80;;;;;;5069028;28;20683;-52
2021/04/22 05:42:38;;;;;;;8.73;3.33;;;10.00;46.80;;;;;;5069758;28;20709;-53
2021/04/22 05:45:06;;;;;;;8.03;3.23;;;10.00;46.70;;;;;;5069667;28;20752;-52
2021/04/22 05:47:33;;;;;;;8.60;3.97;;;10.00;46.60;;;;;;5069936;28;20682;-53
2021/04/22 05:50:00;;;;;;;9.10;3.50;;;10.00;46.70;;;;;;5051833;28;20655;-53
2021/04/22 05:52:26;;;;;;;16.30;5.90;;;10.10;46.40;;;;;;5051898;28;20657;-52
2021/04/22 05:54:53;;;;;;;9.43;3.70;;;10.20;46.20;;;;;;5070287;28;20633;-53
2021/04/22 05:57:21;;;;;;;15.73;4.27;;;10.20;46.10;;;;;;5069378;28;21213;-52
2021/04/22 05:59:47;;;;;;;6.67;3.00;;;10.20;46.00;;;;;;5069943;28;20626;-52
2021/04/22 06:02:14;;;;;;;8.23;3.17;;;10.20;46.00;;;;;;5067987;28;20660;-52
2021/04/22 06:04:41;;;;;;;9.23;3.50;;;10.30;45.90;;;;;;5068069;28;20736;-52
2021/04/22 06:07:08;;;;;;;6.67;4.23;;;10.30;45.60;;;;;;5069907;28;21212;-52
2021/04/22 06:09:35;;;;;;;7.70;3.80;;;10.30;45.60;;;;;;5038699;28;20667;-51
2021/04/22 06:12:03;;;;;;;13.67;4.40;;;10.30;45.60;;;;;;5068856;28;21205;-51
2021/04/22 06:14:30;;;;;;;7.57;3.27;;;10.30;45.90;;;;;;5068875;28;21181;-50
2021/04/22 06:16:57;;;;;;;8.57;3.23;;;10.30;45.80;;;;;;5073206;28;20652;-52
2021/04/22 06:19:24;;;;;;;7.10;3.50;;;10.30;45.80;;;;;;5073810;28;20620;-53
2021/04/22 06:21:51;;;;;;;8.60;3.80;;;10.40;45.80;;;;;;5072894;28;20711;-52
2021/04/22 06:24:18;;;;;;;11.73;3.60;;;10.40;45.90;;;;;;5073354;28;20633;-52
2021/04/22 06:26:45;;;;;;;6.03;4.13;;;10.40;45.70;;;;;;5055375;28;20624;-52
2021/04/22 06:29:12;;;;;;;10.73;5.83;;;10.40;45.70;;;;;;5072774;28;21149;-52
2021/04/22 06:31:39;;;;;;;10.63;4.47;;;10.40;45.60;;;;;;5073425;28;21301;-52
2021/04/22 06:34:06;;;;;;;7.03;3.20;;;10.50;45.50;;;;;;5073023;28;20632;-53
2021/04/22 06:36:33;;;;;;;8.07;4.40;;;10.60;45.20;;;;;;5073107;28;20652;-51
2021/04/22 06:39:01;;;;;;;13.73;4.03;;;10.70;45.10;;;;;;5072597;28;20690;-51
2021/04/22 06:41:29;;;;;;;7.10;4.33;;;10.80;44.80;;;;;;5073228;28;20814;-51
2021/04/22 06:43:55;;;;;;;11.83;3.70;;;10.90;44.90;;;;;;5073335;28;20625;-51
2021/04/22 06:46:22;;;;;;;12.00;4.20;;;11.10;44.00;;;;;;5070881;28;21209;-52
2021/04/22 06:48:51;;;;;;;8.30;4.10;;;11.20;43.90;;;;;;5053907;28;20636;-52
2021/04/22 06:51:18;;;;;;;7.40;3.40;;;11.30;43.20;;;;;;5063056;28;21205;-52
2021/04/22 06:53:45;;;;;;;9.40;3.63;;;11.30;42.80;;;;;;5073167;28;20694;-52
2021/04/22 06:56:11;;;;;;;9.43;4.37;;;11.40;42.50;;;;;;5072756;28;20653;-52
2021/04/22 06:58:38;;;;;;;11.03;4.20;;;11.40;42.20;;;;;;5073137;28;20687;-51
2021/04/22 07:01:05;;;;;;;7.33;4.73;;;11.50;42.20;;;;;;5054780;28;20657;-51
2021/04/22 07:03:32;;;;;;;10.63;5.67;;;11.60;42.10;;;;;;5072985;28;21157;-50
2021/04/22 07:05:59;;;;;;;10.37;4.60;;;11.70;41.90;;;;;;5072489;28;20694;-52
2021/04/22 07:08:26;;;;;;;9.33;4.00;;;11.80;41.30;;;;;;5071891;28;20629;-51
2021/04/22 07:10:53;;;;;;;11.10;4.50;;;11.90;41.40;;;;;;5072722;28;20653;-51
2021/04/22 07:13:20;;;;;;;10.80;4.73;;;12.00;40.90;;;;;;5071658;28;20627;-51
2021/04/22 07:15:47;;;;;;;9.73;4.77;;;12.10;40.60;;;;;;5071942;28;20657;-51
2021/04/22 07:18:14;;;;;;;10.17;5.57;;;12.30;40.80;;;;;;5072952;28;20670;-52
2021/04/22 07:20:40;;;;;;;11.40;5.67;;;12.50;41.10;;;;;;5072606;28;20658;-53
2021/04/22 07:23:12;;;;;;;9.40;3.53;;;12.60;40.10;;;;;;5067683;28;20629;-52
2021/04/22 07:25:39;;;;;;;9.53;4.70;;;12.70;39.70;;;;;;5071766;28;20639;-51
2021/04/22 07:28:09;;;;;;;12.47;4.63;;;12.80;39.10;;;;;;5072413;28;20628;-54
2021/04/22 07:30:36;;;;;;;10.23;4.90;;;12.90;38.80;;;;;;5072527;28;20630;-51
2021/04/22 07:33:04;;;;;;;13.97;5.60;;;13.10;39.10;;;;;;5071528;28;20632;-51
2021/04/22 07:35:31;;;;;;;10.07;4.47;;;13.30;39.10;;;;;;5074382;28;20648;-50
2021/04/22 07:37:57;;;;;;;8.30;4.70;;;13.50;39.00;;;;;;5071814;28;20617;-52
2021/04/22 07:40:26;;;;;;;15.47;6.37;;;13.60;38.00;;;;;;5071829;28;20633;-51
2021/04/22 07:42:53;;;;;;;13.53;4.30;;;13.60;37.30;;;;;;5072298;28;20617;-52
2021/04/22 07:45:21;;;;;;;7.80;3.80;;;13.70;37.00;;;;;;5071957;28;21190;-52
2021/04/22 07:47:48;;;;;;;16.60;5.50;;;13.80;37.20;;;;;;5070953;28;20695;-51
2021/04/22 07:50:15;;;;;;;8.10;4.27;;;13.90;36.80;;;;;;5069223;28;20674;-51
2021/04/22 07:52:43;;;;;;;14.07;4.77;;;14.00;36.50;;;;;;5072423;28;20657;-51
2021/04/22 07:55:14;;;;;;;9.10;3.97;;;14.00;36.40;;;;;;5072285;28;20633;-51
2021/04/22 07:57:42;;;;;;;7.10;3.60;;;14.00;35.80;;;;;;5072090;28;20714;-51
2021/04/22 08:00:10;;;;;;;8.00;4.30;;;14.10;35.10;;;;;;5071724;28;20629;-52
2021/04/22 08:02:37;;;;;;;6.77;3.63;;;14.30;35.60;;;;;;5056916;28;20687;-51
2021/04/22 08:05:05;;;;;;;11.60;4.07;;;14.40;35.00;;;;;;5032064;28;20765;-52
2021/04/22 08:07:32;;;;;;;6.80;4.07;;;14.60;34.30;;;;;;5032094;28;21032;-52
2021/04/22 08:09:59;;;;;;;10.53;4.37;;;14.70;34.30;;;;;;5047668;28;20629;-51
2021/04/22 08:12:26;;;;;;;9.03;3.83;;;15.00;34.80;;;;;;5051974;28;20653;-52
2021/04/22 08:14:58;;;;;;;17.97;5.70;;;15.20;34.40;;;;;;5052466;28;20977;-52
2021/04/22 08:17:25;;;;;;;9.73;4.30;;;15.30;34.10;;;;;;5051543;28;20658;-52
2021/04/22 08:19:52;;;;;;;6.63;4.07;;;15.50;33.40;;;;;;5051606;28;21175;-52
2021/04/22 08:22:19;;;;;;;8.33;4.10;;;15.60;32.60;;;;;;5051787;28;20654;-52
2021/04/22 08:24:46;;;;;;;9.03;3.90;;;15.70;32.10;;;;;;5051506;28;20645;-52
2021/04/22 08:27:12;;;;;;;10.87;5.00;;;15.70;32.10;;;;;;5050989;28;20611;-52
2021/04/22 08:29:39;;;;;;;7.97;4.53;;;15.60;32.00;;;;;;5050802;28;21163;-52
2021/04/22 08:32:07;;;;;;;10.20;4.43;;;15.60;32.10;;;;;;5051739;28;20709;-52
2021/04/22 08:34:34;;;;;;;8.63;4.63;;;15.60;32.80;;;;;;5051251;28;20645;-52
2021/04/22 08:37:01;;;;;;;9.83;4.73;;;15.60;32.20;;;;;;5051110;28;20658;-53
2021/04/22 08:39:28;;;;;;;9.10;4.27;;;15.60;31.70;;;;;;5032754;28;20634;-52
2021/04/22 08:41:55;;;;;;;10.83;4.37;;;15.60;31.80;;;;;;5051191;28;21340;-52
2021/04/22 08:44:22;;;;;;;13.40;5.00;;;15.50;32.00;;;;;;5050954;28;21041;-52
2021/04/22 08:46:49;;;;;;;5.70;4.30;;;15.40;32.00;;;;;;5051618;28;20726;-52
2021/04/22 08:49:16;;;;;;;6.80;3.70;;;15.40;32.40;;;;;;5051104;28;20676;-51
2021/04/22 08:51:43;;;;;;;13.23;4.30;;;15.40;31.80;;;;;;5051247;28;20661;-52
2021/04/22 08:54:10;;;;;;;8.53;4.57;;;15.50;32.10;;;;;;5049425;28;20626;-53
2021/04/22 08:56:38;;;;;;;6.47;3.30;;;15.60;31.80;;;;;;5051095;28;20650;-52
2021/04/22 08:59:05;;;;;;;6.13;4.13;;;15.80;31.50;;;;;;5050768;28;20618;-51
2021/04/22 09:01:32;;;;;;;10.10;4.50;;;16.10;31.50;;;;;;5050355;28;20653;-51
2021/04/22 09:04:00;;;;;;;10.57;4.73;;;16.30;30.80;;;;;;5050516;28;20709;-51
2021/04/22 09:06:28;;;;;;;7.90;4.37;;;16.40;30.80;;;;;;5053291;28;20626;-52
2021/04/22 09:08:55;;;;;;;9.10;4.83;;;16.50;30.80;;;;;;5069626;28;20625;-51
2021/04/22 09:11:23;;;;;;;17.67;4.87;;;16.50;30.80;;;;;;5070147;28;20967;-51
2021/04/22 09:13:50;;;;;;;7.50;3.97;;;16.40;30.90;;;;;;5070786;28;20629;-53
2021/04/22 09:16:18;;;;;;;10.37;5.07;;;16.30;31.70;;;;;;5067038;28;21252;-51
2021/04/22 09:18:46;;;;;;;7.30;4.50;;;16.30;31.00;;;;;;5069878;28;20660;-52
2021/04/22 09:21:20;;;;;;;11.93;5.17;;;16.30;31.30;;;;;;5070402;28;20652;-51
2021/04/22 09:23:58;;;;;;;7.90;4.27;;;16.40;31.40;;;;;;5068304;28;20721;-52
2021/04/22 09:26:35;;;;;;;7.63;4.77;;;16.40;30.70;;;;;;5070514;28;20643;-52
2021/04/22 09:29:02;;;;;;;5.93;4.23;;;16.40;30.30;;;;;;5068366;28;20643;-51
2021/04/22 09:31:29;;;;;;;8.87;4.30;;;16.40;30.10;;;;;;5070042;28;20656;-51
2021/04/22 09:34:05;;;;;;;11.63;4.50;;;16.30;29.80;;;;;;5069231;28;20946;-51
2021/04/22 09:36:53;;;;;;;9.00;4.20;;;16.20;29.90;;;;;;5050559;28;20649;-52
2021/04/22 09:39:21;;;;;;;8.27;4.80;;;16.30;30.00;;;;;;5063728;28;21238;-53
2021/04/22 09:41:52;;;;;;;11.33;4.80;;;16.30;30.10;;;;;;5051856;28;20645;-52
2021/04/22 09:44:19;;;;;;;10.33;4.60;;;16.50;29.90;;;;;;5070512;28;20731;-51
2021/04/22 09:46:47;;;;;;;5.53;3.70;;;16.60;29.30;;;;;;5070271;28;20617;-52
2021/04/22 09:49:15;;;;;;;9.50;4.40;;;16.80;29.20;;;;;;5071825;28;21165;-52
2021/04/22 09:51:44;;;;;;;10.47;3.90;;;17.00;28.50;;;;;;5070631;28;20645;-52
2021/04/22 09:54:12;;;;;;;7.60;4.43;;;17.20;28.80;;;;;;5074344;28;20617;-51
2021/04/22 09:56:46;;;;;;;10.50;4.00;;;17.40;28.30;;;;;;5074130;28;20657;-52
2021/04/22 09:59:17;;;;;;;6.17;3.87;;;17.60;28.00;;;;;;5072830;28;20617;-52
2021/04/22 10:01:45;;;;;;;10.07;4.10;;;17.70;27.90;;;;;;5073740;28;20657;-51
2021/04/22 10:04:15;;;;;;;9.33;4.97;;;18.00;27.90;;;;;;5077486;28;21539;-50
2021/04/22 10:06:44;;;;;;;6.83;3.73;;;18.30;28.00;;;;;;5074247;28;20609;-51
2021/04/22 10:09:10;;;;;;;8.03;4.53;;;18.60;27.90;;;;;;5043408;28;20642;-51
2021/04/22 10:11:51;;;;;;;11.30;5.80;;;18.90;27.70;;;;;;5073283;28;20673;-51
2021/04/22 10:14:32;;;;;;;12.70;4.90;;;19.10;27.40;;;;;;5056592;28;21383;-51
2021/04/22 10:16:59;;;;;;;8.20;4.57;;;19.20;27.20;;;;;;5074207;28;20652;-52
2021/04/22 10:19:26;;;;;;;7.83;4.20;;;19.40;27.50;;;;;;5073982;28;20691;-51
2021/04/22 10:21:52;;;;;;;6.80;3.80;;;19.70;27.30;;;;;;5074281;28;20756;-52
2021/04/22 10:24:24;;;;;;;7.97;4.27;;;20.00;26.70;;;;;;5055737;28;20625;-52
2021/04/22 10:26:58;;;;;;;5.60;4.83;;;20.00;26.70;;;;;;5074362;28;20621;-54
2021/04/22 10:29:25;;;;;;;8.77;5.40;;;20.30;26.50;;;;;;5073730;28;20760;-52
2021/04/22 10:31:52;;;;;;;11.37;4.80;;;20.50;26.30;;;;;;5074107;28;20649;-52
2021/04/22 10:34:19;;;;;;;9.50;4.17;;;20.50;26.20;;;;;;5073759;28;20617;-52
2021/04/22 10:36:46;;;;;;;14.13;5.10;;;20.30;26.30;;;;;;5074432;28;20675;-52
2021/04/22 10:39:12;;;;;;;8.47;4.40;;;20.00;26.10;;;;;;5072624;28;20621;-52
2021/04/22 10:41:39;;;;;;;8.23;4.63;;;19.60;26.60;;;;;;5056423;28;20666;-52
2021/04/22 10:44:08;;;;;;;4.80;3.80;;;19.40;27.10;;;;;;5061251;28;21041;-51
2021/04/22 10:46:37;;;;;;;5.63;3.87;;;19.20;26.90;;;;;;5073060;28;20685;-51
2021/04/22 10:49:04;;;;;;;9.17;3.70;;;19.10;26.90;;;;;;5071201;28;20675;-51
2021/04/22 10:51:31;;;;;;;10.20;5.87;;;19.00;27.00;;;;;;5069542;28;21241;-51
2021/04/22 10:54:00;;;;;;;9.07;4.20;;;18.90;26.80;;;;;;5073225;28;21110;-52
2021/04/22 10:56:26;;;;;;;7.00;4.30;;;18.80;27.30;;;;;;5073384;28;20662;-51
2021/04/22 10:58:53;;;;;;;10.20;3.80;;;18.80;27.40;;;;;;5073582;28;21213;-51
2021/04/22 11:01:30;;;;;;;5.83;3.90;;;18.70;27.20;;;;;;5071969;28;20700;-51
2021/04/22 11:04:03;;;;;;;9.27;5.47;;;18.70;27.60;;;;;;5087379;28;20627;-51
2021/04/22 11:06:33;;;;;;;9.20;5.13;;;18.60;27.70;;;;;;5073124;28;20633;-52
2021/04/22 11:09:11;;;;;;;8.67;4.03;;;18.70;27.50;;;;;;5055915;28;20618;-51
2021/04/22 11:11:38;;;;;;;8.10;4.30;;;19.10;27.70;;;;;;5072389;28;20660;-52
2021/04/22 11:14:06;;;;;;;14.10;4.47;;;19.70;26.90;;;;;;5072202;28;20687;-51
2021/04/22 11:16:34;;;;;;;10.00;4.83;;;20.10;26.50;;;;;;5071290;28;21302;-52
2021/04/22 11:19:01;;;;;;;10.80;4.73;;;20.40;26.20;;;;;;5070638;28;20613;-52
2021/04/22 11:21:29;;;;;;;9.27;4.80;;;20.70;25.70;;;;;;5072219;28;20653;-52
2021/04/22 11:23:57;;;;;;;7.97;4.00;;;21.00;25.40;;;;;;5071420;28;20966;-53
2021/04/22 11:26:26;;;;;;;9.23;5.23;;;21.30;25.20;;;;;;5071122;28;21009;-52
2021/04/22 11:28:54;;;;;;;10.70;4.90;;;21.50;25.30;;;;;;5071593;28;20653;-53
2021/04/22 11:31:21;;;;;;;6.57;4.87;;;21.60;24.70;;;;;;5072661;28;20995;-52
2021/04/22 11:33:49;;;;;;;8.70;5.07;;;21.80;24.50;;;;;;5071706;28;20643;-52
2021/04/22 11:36:18;;;;;;;6.70;3.83;;;21.80;24.00;;;;;;5072390;28;20628;-52
2021/04/22 11:38:55;;;;;;;6.87;4.17;;;21.80;24.20;;;;;;5071397;28;20738;-51
2021/04/22 11:41:23;;;;;;;8.50;4.90;;;21.80;24.50;;;;;;5062734;28;20664;-51
2021/04/22 11:44:00;;;;;;;9.43;4.40;;;21.70;24.40;;;;;;5072500;28;20739;-51
2021/04/22 11:46:36;;;;;;;8.10;5.13;;;21.40;24.80;;;;;;5054385;28;20633;-51
2021/04/22 11:49:04;;;;;;;6.90;4.40;;;21.20;24.90;;;;;;5072002;28;21166;-52
2021/04/22 11:51:35;;;;;;;10.20;4.33;;;21.20;25.10;;;;;;5071412;28;20677;-52
2021/04/22 11:54:02;;;;;;;12.73;5.37;;;21.30;24.90;;;;;;5072453;28;20626;-50
2021/04/22 11:56:29;;;;;;;5.97;4.83;;;21.30;24.40;;;;;;5071828;28;20614;-51
2021/04/22 11:58:56;;;;;;;6.73;4.80;;;21.20;24.50;;;;;;5071302;28;20690;-53
2021/04/22 12:01:22;;;;;;;6.17;4.67;;;21.00;24.60;;;;;;5071442;28;20702;-51
2021/04/22 12:03:50;;;;;;;8.53;4.70;;;20.90;25.00;;;;;;5074537;28;21094;-51
2021/04/22 12:06:21;;;;;;;10.30;5.27;;;20.80;25.10;;;;;;5081674;28;20654;-51
2021/04/22 12:08:49;;;;;;;10.07;4.23;;;20.90;24.80;;;;;;5071253;28;21162;-53
2021/04/22 12:11:19;;;;;;;7.33;4.47;;;21.10;24.90;;;;;;5071037;28;21020;-52
2021/04/22 12:13:46;;;;;;;7.17;4.40;;;21.20;24.70;;;;;;5052797;28;20633;-53
2021/04/22 12:16:15;;;;;;;7.23;4.60;;;20.80;24.20;;;;;;5076806;28;21039;-51
2021/04/22 12:18:42;;;;;;;5.67;3.73;;;20.50;24.90;;;;;;5079141;28;20661;-50
2021/04/22 12:21:10;;;;;;;6.57;4.67;;;20.60;24.70;;;;;;5071142;28;21288;-53
2021/04/22 12:23:39;;;;;;;8.90;4.67;;;21.10;24.90;;;;;;5071688;28;20617;-51
2021/04/22 12:26:13;;;;;;;8.83;5.20;;;21.70;24.60;;;;;;5070992;28;21355;-53
2021/04/22 12:28:43;;;;;;;8.73;4.80;;;22.10;24.20;;;;;;5051695;28;20654;-53
2021/04/22 12:31:10;;;;;;;7.33;4.27;;;22.30;24.10;;;;;;5070271;28;21073;-51
2021/04/22 12:33:36;;;;;;;8.97;4.10;;;22.40;23.60;;;;;;5083181;28;20936;-52
2021/04/22 12:36:04;;;;;;;8.90;4.30;;;22.30;23.80;;;;;;5070444;28;20629;-53
2021/04/22 12:38:33;;;;;;;8.33;4.90;;;22.20;24.20;;;;;;5070163;28;20765;-53
2021/04/22 12:41:01;;;;;;;10.13;4.40;;;22.20;24.00;;;;;;5071346;28;20679;-53
2021/04/22 12:43:29;;;;;;;5.70;4.20;;;22.20;23.60;;;;;;5070667;28;20686;-52
2021/04/22 12:45:56;;;;;;;7.80;4.50;;;22.20;23.80;;;;;;5051536;28;20681;-52
2021/04/22 12:48:23;;;;;;;6.83;3.80;;;22.20;23.80;;;;;;5070173;28;20617;-52